Time;durP1;ratioP1;P1;durP2;ratioP2;P2;SDS_P1;SDS_P2;PMS_P1;PMS_P2;Temp;Humidity;BMP_temperature;BMP_pressure;BME280_temperature;BME280_humidity;BME280_pressure;Samples;Min_cycle;Max_cycle;Signal;HPM_P1;HPM_P2
2024/01/25 00:02:21;;;;;;;26.10;4.67;;;;;;;8.55;80.88;96660.41;5034243;28;20190;-76
2024/01/25 00:04:46;;;;;;;21.60;4.37;;;;;;;8.77;80.48;96675.25;5015629;28;20236;-76
2024/01/25 00:07:12;;;;;;;24.37;5.13;;;;;;;8.85;80.03;96687.69;5013958;28;20225;-76
2024/01/25 00:09:37;;;;;;;22.83;4.57;;;;;;;8.68;80.70;96676.75;5032172;28;20688;-76
2024/01/25 00:12:03;;;;;;;33.23;4.57;;;;;;;8.84;80.35;96679.09;5032862;28;20628;-77
2024/01/25 00:14:28;;;;;;;22.90;5.30;;;;;;;8.87;80.32;96675.44;5016135;28;20575;-77
2024/01/25 00:16:54;;;;;;;17.00;3.83;;;;;;;8.83;80.89;96674.81;5033854;28;20206;-77
2024/01/25 00:19:19;;;;;;;20.47;3.83;;;;;;;8.98;79.91;96684.09;5000458;28;20194;-77
2024/01/25 00:21:44;;;;;;;22.53;5.03;;;;;;;8.86;80.65;96678.97;5033663;28;20217;-77
2024/01/25 00:24:12;;;;;;;25.60;4.90;;;;;;;8.89;80.52;96678.75;5016164;28;20187;-77
2024/01/25 00:26:37;;;;;;;17.10;4.00;;;;;;;8.81;81.04;96674.09;5015876;28;20194;-76
2024/01/25 00:29:03;;;;;;;23.13;4.40;;;;;;;8.88;80.91;96680.50;5032430;28;20272;-76
2024/01/25 00:31:28;;;;;;;20.37;4.57;;;;;;;8.91;80.99;96674.25;5031973;28;20229;-76
2024/01/25 00:33:53;;;;;;;19.80;4.60;;;;;;;8.95;80.81;96665.34;5031868;28;20265;-76
2024/01/25 00:36:19;;;;;;;25.97;4.60;;;;;;;8.97;80.61;96679.84;5033940;28;20248;-76
2024/01/25 00:38:45;;;;;;;21.47;4.57;;;;;;;9.01;80.44;96677.84;5033676;28;20194;-76
2024/01/25 00:41:15;;;;;;;17.40;4.07;;;;;;;9.02;80.12;96675.16;5015534;28;20210;-77
2024/01/25 00:43:41;;;;;;;18.10;3.87;;;;;;;8.97;80.42;96685.03;5032243;28;20703;-76
2024/01/25 00:46:10;;;;;;;20.97;4.27;;;;;;;8.97;80.03;96673.84;5015187;28;20192;-76
2024/01/25 00:48:35;;;;;;;17.17;4.13;;;;;;;9.03;80.08;96682.00;5015644;28;20717;-77
2024/01/25 00:51:01;;;;;;;17.43;4.50;;;;;;;9.02;80.40;96702.84;5032987;28;20246;-77
2024/01/25 00:53:26;;;;;;;23.80;4.10;;;;;;;8.86;80.82;96691.91;5031305;28;20805;-77
2024/01/25 00:55:54;;;;;;;17.83;4.20;;;;;;;8.96;80.52;96692.91;5033185;28;20266;-76
2024/01/25 00:58:22;;;;;;;22.33;4.40;;;;;;;8.96;80.37;96692.91;5033114;28;20280;-77
2024/01/25 01:00:48;;;;;;;28.10;4.97;;;;;;;9.04;80.21;96696.59;5031218;28;20298;-76
2024/01/25 01:03:14;;;;;;;18.13;4.33;;;;;;;8.88;80.39;96698.63;5033491;28;20277;-77
2024/01/25 01:05:39;;;;;;;25.23;4.13;;;;;;;8.80;80.78;96696.59;5030658;28;20190;-77
2024/01/25 01:08:05;;;;;;;19.40;4.07;;;;;;;8.86;80.34;96697.09;5032369;28;20196;-77
2024/01/25 01:10:31;;;;;;;22.47;3.83;;;;;;;8.82;80.11;96703.41;5031306;28;20217;-77
2024/01/25 01:12:56;;;;;;;21.97;3.80;;;;;;;9.00;79.33;96696.94;5031572;28;20572;-77
2024/01/25 01:15:21;;;;;;;24.57;4.87;;;;;;;8.92;79.29;96699.22;5031575;28;20656;-77
2024/01/25 01:17:47;;;;;;;19.67;4.27;;;;;;;9.01;79.52;96695.97;5032880;28;20187;-77
2024/01/25 01:20:12;;;;;;;22.47;4.37;;;;;;;8.86;79.71;96692.75;5032317;28;20209;-75
2024/01/25 01:22:37;;;;;;;23.27;3.80;;;;;;;8.85;79.48;96688.50;5014887;28;20735;-75
2024/01/25 01:25:03;;;;;;;21.20;4.60;;;;;;;8.89;79.21;96689.94;5014770;28;20194;-75
2024/01/25 01:27:28;;;;;;;22.10;4.80;;;;;;;8.84;79.57;96694.63;5031227;28;20218;-75
2024/01/25 01:29:54;;;;;;;25.60;5.03;;;;;;;8.95;78.61;96696.44;5014122;28;20268;-75
2024/01/25 01:32:19;;;;;;;15.43;3.63;;;;;;;8.85;79.62;96700.63;5032648;28;20582;-75
2024/01/25 01:34:44;;;;;;;18.67;4.57;;;;;;;8.80;79.35;96694.00;5014708;28;20652;-75
2024/01/25 01:37:10;;;;;;;27.60;4.73;;;;;;;8.78;79.42;96695.06;5031348;28;20690;-75
2024/01/25 01:39:35;;;;;;;17.73;3.67;;;;;;;8.77;79.88;96698.56;5031769;28;20210;-75
2024/01/25 01:42:00;;;;;;;24.73;4.37;;;;;;;8.81;79.35;96702.59;5032021;28;20189;-75
2024/01/25 01:44:26;;;;;;;20.97;5.20;;;;;;;8.72;79.74;96698.88;5031202;28;20211;-75
2024/01/25 01:46:51;;;;;;;17.90;3.77;;;;;;;8.70;79.31;96705.94;5032166;28;20293;-75
2024/01/25 01:49:17;;;;;;;18.67;4.20;;;;;;;8.82;78.99;96698.22;5032220;28;20282;-76
2024/01/25 01:51:43;;;;;;;16.70;3.77;;;;;;;8.76;79.28;96705.53;4990058;28;20211;-76
2024/01/25 01:54:09;;;;;;;24.83;4.30;;;;;;;8.71;79.46;96706.78;5014500;28;20636;-76
2024/01/25 01:56:35;;;;;;;20.97;4.00;;;;;;;8.79;79.21;96702.72;5030771;28;20252;-76
2024/01/25 01:59:01;;;;;;;18.97;4.20;;;;;;;8.92;78.63;96712.19;5014210;28;20179;-76
2024/01/25 02:01:27;;;;;;;20.17;4.40;;;;;;;8.90;78.65;96708.88;5013728;28;20326;-76
2024/01/25 02:03:53;;;;;;;21.87;4.80;;;;;;;8.97;78.45;96699.75;5030290;28;20190;-76
2024/01/25 02:06:19;;;;;;;23.87;3.93;;;;;;;8.93;78.79;96708.69;5029903;28;20194;-76
2024/01/25 02:08:45;;;;;;;18.07;4.07;;;;;;;8.91;78.99;96708.78;5014038;28;20193;-75
2024/01/25 02:11:13;;;;;;;23.23;3.63;;;;;;;8.87;78.91;96696.97;5013236;28;20210;-75
2024/01/25 02:13:39;;;;;;;19.50;3.73;;;;;;;8.76;79.55;96697.75;5013939;28;20194;-75
2024/01/25 02:16:05;;;;;;;23.83;4.43;;;;;;;8.88;79.31;96701.22;5013934;28;20190;-75
2024/01/25 02:18:30;;;;;;;23.23;4.43;;;;;;;8.85;79.85;96690.28;5030484;28;20665;-76
2024/01/25 02:20:56;;;;;;;22.73;4.90;;;;;;;8.85;79.67;96690.28;5029732;28;20221;-75
2024/01/25 02:23:21;;;;;;;23.93;3.73;;;;;;;8.76;79.89;96671.84;5031689;28;20261;-76
2024/01/25 02:25:47;;;;;;;17.40;3.87;;;;;;;8.60;80.66;96680.81;5029934;28;20270;-75
2024/01/25 02:28:12;;;;;;;14.47;3.93;;;;;;;8.71;80.47;96681.69;4997313;28;20195;-75
2024/01/25 02:30:37;;;;;;;17.50;3.70;;;;;;;8.57;80.83;96678.41;5013076;28;20211;-76
2024/01/25 02:33:02;;;;;;;19.00;3.90;;;;;;;8.74;80.37;96665.94;5030229;28;20229;-76
2024/01/25 02:35:28;;;;;;;15.10;3.90;;;;;;;8.70;80.50;96676.63;5031308;28;20206;-76
2024/01/25 02:37:53;;;;;;;17.20;3.90;;;;;;;8.64;80.46;96684.81;5030103;28;20195;-75
2024/01/25 02:40:18;;;;;;;17.63;4.23;;;;;;;8.77;79.82;96680.44;5029291;28;20222;-76
2024/01/25 02:42:44;;;;;;;20.30;3.87;;;;;;;8.50;79.86;96686.63;5013492;28;20194;-75
2024/01/25 02:45:09;;;;;;;21.47;3.93;;;;;;;8.53;79.80;96688.16;5031077;28;20197;-75
2024/01/25 02:47:34;;;;;;;23.43;4.20;;;;;;;8.58;79.46;96690.44;5031485;28;20202;-76
2024/01/25 02:50:00;;;;;;;20.53;4.17;;;;;;;8.63;79.29;96696.13;5029268;28;20615;-76
2024/01/25 02:52:25;;;;;;;18.93;3.77;;;;;;;8.65;79.76;96691.66;5029912;28;20668;-76
2024/01/25 02:54:50;;;;;;;18.57;3.60;;;;;;;8.59;80.32;96690.34;5012897;28;20213;-75
2024/01/25 02:57:16;;;;;;;20.13;4.07;;;;;;;8.48;81.08;96679.88;5031095;28;20197;-75
2024/01/25 02:59:42;;;;;;;20.53;4.60;;;;;;;8.49;81.01;96684.16;5012648;28;20293;-76
2024/01/25 03:02:07;;;;;;;23.97;3.80;;;;;;;8.55;80.96;96683.72;5030908;28;20226;-76
2024/01/25 03:04:32;;;;;;;23.40;4.47;;;;;;;8.54;80.64;96676.06;5013101;28;20221;-76
2024/01/25 03:06:57;;;;;;;15.90;4.30;;;;;;;8.49;80.69;96673.81;5012046;28;20197;-76
2024/01/25 03:09:23;;;;;;;14.67;3.63;;;;;;;8.59;80.47;96672.22;5030088;28;20195;-76
2024/01/25 03:11:49;;;;;;;17.50;4.23;;;;;;;8.52;81.15;96673.56;5029535;28;20304;-75
2024/01/25 03:14:14;;;;;;;19.67;4.00;;;;;;;8.54;80.87;96673.47;5029481;28;20190;-75
2024/01/25 03:16:40;;;;;;;14.00;3.40;;;;;;;8.55;80.87;96669.94;5012647;28;20195;-76
2024/01/25 03:19:05;;;;;;;19.83;3.87;;;;;;;8.44;80.77;96670.69;5029401;28;20269;-76
2024/01/25 03:21:30;;;;;;;22.20;3.70;;;;;;;8.41;80.54;96676.09;5028894;28;20245;-76
2024/01/25 03:23:55;;;;;;;18.07;3.83;;;;;;;8.36;80.59;96672.97;5012875;28;20289;-75
2024/01/25 03:26:21;;;;;;;20.23;3.60;;;;;;;8.28;80.94;96685.59;5030558;28;20192;-76
2024/01/25 03:28:46;;;;;;;15.17;3.63;;;;;;;8.15;81.17;96675.28;5029215;28;20195;-75
2024/01/25 03:31:11;;;;;;;20.83;4.23;;;;;;;8.31;80.46;96682.81;5029963;28;20210;-76
2024/01/25 03:33:37;;;;;;;24.73;3.53;;;;;;;8.31;80.56;96680.22;5030301;28;20240;-76
2024/01/25 03:36:03;;;;;;;18.57;4.70;;;;;;;8.30;80.80;96683.72;5012696;28;20228;-76
2024/01/25 03:38:28;;;;;;;21.37;3.17;;;;;;;8.11;81.37;96678.97;5030315;28;20244;-76
2024/01/25 03:40:55;;;;;;;21.37;4.13;;;;;;;8.27;80.80;96695.13;5029797;28;20626;-76
2024/01/25 03:43:20;;;;;;;16.30;3.20;;;;;;;8.33;80.74;96699.06;5012986;28;20643;-76
2024/01/25 03:45:45;;;;;;;18.23;4.20;;;;;;;8.11;81.59;96695.34;5012487;28;20236;-76
2024/01/25 03:48:11;;;;;;;20.60;4.70;;;;;;;8.13;82.08;96698.66;5030197;28;20232;-76
2024/01/25 03:50:36;;;;;;;16.13;3.70;;;;;;;8.19;81.48;96708.56;5011967;28;20224;-76
2024/01/25 03:53:01;;;;;;;21.73;3.70;;;;;;;8.13;82.00;96709.00;5028996;28;20191;-76
2024/01/25 03:55:27;;;;;;;20.63;3.93;;;;;;;8.40;80.76;96710.69;5028944;28;20198;-76
2024/01/25 03:57:52;;;;;;;13.50;3.60;;;;;;;8.34;81.04;96711.06;5030277;28;20190;-76
2024/01/25 04:00:18;;;;;;;18.10;3.87;;;;;;;8.13;81.89;96706.44;5004309;28;20210;-76
2024/01/25 04:02:43;;;;;;;13.87;4.03;;;;;;;8.23;81.93;96727.31;5030332;28;20233;-75
2024/01/25 04:05:08;;;;;;;12.40;3.20;;;;;;;8.19;81.93;96721.50;4995964;28;20278;-76
2024/01/25 04:07:34;;;;;;;19.83;4.37;;;;;;;8.19;82.02;96723.28;5027981;28;20277;-75
2024/01/25 04:09:59;;;;;;;19.07;4.23;;;;;;;8.18;82.62;96734.56;5028139;28;20210;-76
2024/01/25 04:12:25;;;;;;;21.53;4.10;;;;;;;8.18;82.53;96737.16;5030150;28;20736;-76
2024/01/25 04:14:50;;;;;;;20.57;3.97;;;;;;;8.28;82.27;96739.94;5028645;28;20235;-75
2024/01/25 04:17:15;;;;;;;17.97;4.23;;;;;;;8.16;82.18;96736.44;5028914;28;20244;-76
2024/01/25 04:19:40;;;;;;;18.33;4.43;;;;;;;8.33;82.27;96741.28;5011850;28;20241;-75
2024/01/25 04:22:06;;;;;;;20.37;4.30;;;;;;;8.20;82.60;96741.28;5012429;28;20194;-76
2024/01/25 04:24:31;;;;;;;15.97;3.90;;;;;;;8.09;83.04;96733.41;5028805;28;20186;-76
2024/01/25 04:26:56;;;;;;;28.83;4.50;;;;;;;8.14;82.52;96736.53;5028920;28;20198;-76
2024/01/25 04:29:22;;;;;;;24.47;4.63;;;;;;;8.08;82.67;96739.53;5032017;28;20629;-75
2024/01/25 04:31:48;;;;;;;23.73;3.87;;;;;;;8.10;82.49;96742.00;5015827;28;20202;-75
2024/01/25 04:34:13;;;;;;;21.80;4.47;;;;;;;7.95;81.80;96738.69;5033646;28;20190;-76
2024/01/25 04:36:39;;;;;;;17.73;4.23;;;;;;;8.15;81.27;96740.78;5032523;28;20202;-75
2024/01/25 04:39:04;;;;;;;22.63;4.43;;;;;;;8.25;80.76;96740.97;5015675;28;20225;-76
2024/01/25 04:41:30;;;;;;;20.17;5.43;;;;;;;8.13;81.64;96739.25;5031751;28;20199;-76
2024/01/25 04:43:55;;;;;;;24.17;5.30;;;;;;;8.01;82.26;96735.69;5032075;28;20179;-75
2024/01/25 04:46:20;;;;;;;17.73;3.93;;;;;;;8.03;82.38;96744.16;5012404;28;20190;-75
2024/01/25 04:48:46;;;;;;;19.87;5.53;;;;;;;8.21;81.62;96755.03;5015540;28;20190;-76
2024/01/25 04:51:16;;;;;;;26.77;6.93;;;;;;;8.03;82.20;96759.69;5009721;28;20206;-76
2024/01/25 04:53:42;;;;;;;24.60;5.10;;;;;;;8.00;82.58;96761.66;5015519;28;20622;-75
2024/01/25 04:56:07;;;;;;;20.43;4.60;;;;;;;8.05;82.28;96765.63;5033237;28;20273;-76
2024/01/25 04:58:32;;;;;;;25.93;5.90;;;;;;;8.14;81.93;96771.94;5031960;28;20337;-76
2024/01/25 05:00:57;;;;;;;26.57;5.63;;;;;;;8.07;82.22;96771.50;5014654;28;20297;-76
2024/01/25 05:03:23;;;;;;;24.53;4.90;;;;;;;8.18;81.91;96769.03;5015454;28;20200;-76
2024/01/25 05:05:48;;;;;;;20.53;4.43;;;;;;;8.01;82.88;96771.09;5015056;28;20656;-76
2024/01/25 05:08:13;;;;;;;24.17;4.40;;;;;;;8.03;82.43;96780.38;5030653;28;20236;-76
2024/01/25 05:10:39;;;;;;;20.67;4.40;;;;;;;8.13;81.84;96773.69;5030970;28;20340;-76
2024/01/25 05:13:04;;;;;;;23.60;4.87;;;;;;;8.10;82.30;96784.22;5015071;28;20193;-76
2024/01/25 05:15:29;;;;;;;22.80;4.30;;;;;;;8.07;82.49;96788.78;5032899;28;20236;-76
2024/01/25 05:17:55;;;;;;;21.40;4.80;;;;;;;8.00;83.46;96790.94;5015095;28;20214;-76
2024/01/25 05:20:20;;;;;;;22.53;4.80;;;;;;;8.03;83.06;96785.56;5014516;28;20194;-76
2024/01/25 05:22:46;;;;;;;21.10;5.27;;;;;;;7.88;83.97;96799.53;5032651;28;20703;-76
2024/01/25 05:25:11;;;;;;;18.40;4.17;;;;;;;7.95;83.45;96782.66;5032525;28;20183;-76
2024/01/25 05:27:36;;;;;;;19.57;4.80;;;;;;;7.97;83.47;96786.00;5031467;28;20197;-75
2024/01/25 05:30:02;;;;;;;18.00;3.93;;;;;;;7.88;83.92;96791.78;5030751;28;20708;-76
2024/01/25 05:32:28;;;;;;;28.50;5.57;;;;;;;7.84;84.17;96790.28;5014692;28;20205;-75
2024/01/25 05:34:54;;;;;;;31.07;5.23;;;;;;;7.72;84.74;96786.75;5032411;28;20191;-76
2024/01/25 05:37:19;;;;;;;24.10;4.10;;;;;;;7.67;84.61;96784.47;5031395;28;20186;-75
2024/01/25 05:39:44;;;;;;;21.13;4.40;;;;;;;7.69;84.28;96783.56;5011997;28;20245;-75
2024/01/25 05:42:10;;;;;;;27.43;4.50;;;;;;;7.49;85.27;96775.31;5032691;28;20611;-75
2024/01/25 05:44:35;;;;;;;19.77;4.93;;;;;;;7.44;85.78;96776.56;5014916;28;20656;-76
2024/01/25 05:47:01;;;;;;;26.67;4.90;;;;;;;7.39;85.75;96771.66;5013197;28;20750;-76
2024/01/25 05:49:26;;;;;;;25.53;4.87;;;;;;;7.41;85.72;96774.16;5028478;28;20210;-75
2024/01/25 05:51:51;;;;;;;17.70;3.67;;;;;;;7.38;85.85;96762.25;5030476;28;20246;-75
2024/01/25 05:54:17;;;;;;;25.83;4.70;;;;;;;7.33;86.17;96761.72;5031960;28;20265;-76
2024/01/25 05:56:42;;;;;;;23.33;4.57;;;;;;;7.32;86.36;96754.88;4997679;28;20265;-76
2024/01/25 05:59:07;;;;;;;24.50;4.23;;;;;;;7.37;86.25;96766.59;5030669;28;20532;-76
2024/01/25 06:01:32;;;;;;;22.07;4.80;;;;;;;7.29;86.29;96766.25;4996567;28;20225;-76
2024/01/25 06:03:58;;;;;;;28.50;5.80;;;;;;;7.30;85.62;96772.25;5029529;28;20224;-76
2024/01/25 06:06:23;;;;;;;28.30;5.43;;;;;;;7.30;85.38;96760.16;5029189;28;20186;-75
2024/01/25 06:08:48;;;;;;;22.30;4.53;;;;;;;7.28;85.50;96777.53;5013728;28;20217;-76
2024/01/25 06:11:14;;;;;;;21.30;4.87;;;;;;;7.15;85.96;96788.72;5030787;28;20284;-76
2024/01/25 06:13:39;;;;;;;35.80;5.70;;;;;;;7.14;86.58;96797.41;5029910;28;20194;-76
2024/01/25 06:16:05;;;;;;;29.97;5.03;;;;;;;7.10;87.20;96796.78;5012809;28;20186;-75
2024/01/25 06:18:30;;;;;;;26.57;5.47;;;;;;;7.17;86.49;96799.81;5011226;28;20192;-76
2024/01/25 06:20:55;;;;;;;30.00;5.40;;;;;;;7.17;86.64;96804.97;5012827;28;20198;-76
2024/01/25 06:23:21;;;;;;;28.43;5.43;;;;;;;7.06;87.10;96801.28;5031545;28;20182;-76
2024/01/25 06:25:46;;;;;;;30.10;6.13;;;;;;;6.99;87.72;96800.03;5031117;28;20178;-75
2024/01/25 06:28:11;;;;;;;25.73;5.47;;;;;;;7.05;86.94;96806.53;5030408;28;20522;-76
2024/01/25 06:30:37;;;;;;;24.30;5.43;;;;;;;6.98;87.14;96803.53;5013085;28;20706;-76
2024/01/25 06:33:03;;;;;;;31.27;5.37;;;;;;;6.90;87.15;96802.34;5031392;28;20240;-76
2024/01/25 06:35:28;;;;;;;22.30;5.57;;;;;;;6.91;86.96;96798.84;5013499;28;20182;-76
2024/01/25 06:37:53;;;;;;;24.80;5.00;;;;;;;6.95;86.83;96801.13;5031596;28;20652;-75
2024/01/25 06:40:18;;;;;;;23.47;4.17;;;;;;;6.88;87.08;96799.00;5012732;28;20305;-75
2024/01/25 06:42:44;;;;;;;23.77;4.97;;;;;;;6.89;87.00;96795.50;5012515;28;20191;-75
2024/01/25 06:45:10;;;;;;;19.27;4.67;;;;;;;6.78;88.26;96791.00;4994907;28;20186;-75
2024/01/25 06:47:35;;;;;;;23.53;5.03;;;;;;;6.71;89.08;96792.28;5013525;28;20217;-75
2024/01/25 06:50:00;;;;;;;27.07;6.13;;;;;;;6.79;88.27;96790.91;5028528;28;20296;-76
2024/01/25 06:52:26;;;;;;;24.70;6.20;;;;;;;6.86;87.52;96785.38;5013133;28;20194;-76
2024/01/25 06:54:52;;;;;;;27.30;5.30;;;;;;;6.79;87.52;96795.25;4996914;28;20181;-76
2024/01/25 06:57:17;;;;;;;22.03;5.80;;;;;;;6.63;89.01;96795.38;5027588;28;20179;-76
2024/01/25 06:59:42;;;;;;;21.53;5.23;;;;;;;6.78;87.38;96797.00;5011477;28;20198;-76
2024/01/25 07:02:08;;;;;;;25.97;6.13;;;;;;;6.70;87.97;96798.38;5007171;28;20182;-76
2024/01/25 07:04:33;;;;;;;22.97;5.00;;;;;;;6.73;87.46;96803.38;5029079;28;20257;-76
2024/01/25 07:06:59;;;;;;;25.43;6.90;;;;;;;6.78;86.46;96809.91;5012708;28;20199;-76
2024/01/25 07:09:25;;;;;;;27.73;7.60;;;;;;;6.65;87.15;96803.84;4991953;28;20210;-76
2024/01/25 07:11:50;;;;;;;21.97;5.30;;;;;;;6.78;86.43;96791.00;4993307;28;20183;-76
2024/01/25 07:14:15;;;;;;;20.17;5.97;;;;;;;6.82;85.69;96795.06;5017363;28;20202;-76
2024/01/25 07:16:41;;;;;;;23.50;5.53;;;;;;;6.70;86.26;96804.38;5023509;28;20684;-76
2024/01/25 07:19:06;;;;;;;30.87;9.37;;;;;;;6.71;86.18;96808.59;5026758;28;20189;-76
2024/01/25 07:21:34;;;;;;;23.77;5.87;;;;;;;6.73;85.86;96816.28;4994900;28;20213;-76
2024/01/25 07:24:06;;;;;;;31.23;6.70;;;;;;;6.73;85.89;96809.38;5030056;28;20248;-76
2024/01/25 07:26:31;;;;;;;23.50;5.60;;;;;;;6.76;85.66;96811.75;5012583;28;20189;-76
2024/01/25 07:28:59;;;;;;;22.77;5.07;;;;;;;6.77;85.26;96813.41;5012282;28;20194;-76
2024/01/25 07:31:27;;;;;;;27.97;10.13;;;;;;;6.81;84.75;96824.41;5028228;28;20251;-75
2024/01/25 07:33:53;;;;;;;24.20;8.93;;;;;;;6.77;84.65;96828.06;4995092;28;20182;-76
2024/01/25 07:36:18;;;;;;;26.80;9.93;;;;;;;6.73;84.00;96836.94;5011542;28;20265;-76
2024/01/25 07:38:46;;;;;;;21.13;6.47;;;;;;;6.88;83.51;96846.31;5028718;28;20277;-76
2024/01/25 07:41:12;;;;;;;21.83;8.03;;;;;;;6.88;83.53;96846.31;4995534;28;20260;-76
2024/01/25 07:43:37;;;;;;;30.90;10.93;;;;;;;7.02;82.67;96858.41;5012307;28;20196;-76
2024/01/25 07:46:02;;;;;;;23.43;5.03;;;;;;;6.92;82.69;96859.88;5011939;28;20228;-76
2024/01/25 07:48:28;;;;;;;20.50;4.50;;;;;;;6.95;82.89;96851.94;5028365;28;20277;-76
2024/01/25 07:50:53;;;;;;;21.40;5.10;;;;;;;6.95;82.86;96847.59;5011340;28;20264;-76
2024/01/25 07:53:19;;;;;;;16.67;4.43;;;;;;;6.77;83.41;96848.72;5012238;28;20190;-76
2024/01/25 07:55:45;;;;;;;20.13;4.70;;;;;;;6.91;82.99;96856.47;5029904;28;20175;-76
2024/01/25 07:58:10;;;;;;;25.87;4.93;;;;;;;7.06;82.52;96865.03;5013528;28;20343;-76
2024/01/25 08:00:35;;;;;;;19.53;4.73;;;;;;;6.97;82.48;96863.00;5010917;28;20290;-76
2024/01/25 08:03:01;;;;;;;22.87;5.43;;;;;;;6.97;82.50;96861.25;5030333;28;21434;-76
2024/01/25 08:05:26;;;;;;;23.10;4.67;;;;;;;7.08;81.78;96861.44;5015686;28;20233;-76
2024/01/25 08:07:51;;;;;;;40.67;5.90;;;;;;;7.12;82.06;96858.66;5033788;28;20214;-76
2024/01/25 08:10:17;;;;;;;21.03;4.00;;;;;;;7.08;81.78;96851.13;4999053;28;20245;-76
2024/01/25 08:12:43;;;;;;;25.63;5.63;;;;;;;6.90;82.72;96839.34;5014004;28;20281;-76
2024/01/25 08:15:09;;;;;;;27.23;5.17;;;;;;;7.08;81.87;96838.19;5028895;28;20190;-76
2024/01/25 08:17:37;;;;;;;21.30;4.47;;;;;;;7.09;82.16;96839.03;5015027;28;20182;-76
2024/01/25 08:20:02;;;;;;;21.73;4.90;;;;;;;7.11;82.14;96834.59;5015094;28;20692;-76
2024/01/25 08:22:28;;;;;;;17.73;4.07;;;;;;;7.09;82.18;96833.84;5015876;28;20190;-76
2024/01/25 08:24:53;;;;;;;28.20;4.27;;;;;;;7.23;81.53;96838.97;5032171;28;20179;-76
2024/01/25 08:27:19;;;;;;;20.07;3.97;;;;;;;7.21;81.75;96834.84;5015184;28;20652;-76
2024/01/25 08:29:45;;;;;;;18.60;4.00;;;;;;;7.14;82.03;96838.72;5015087;28;20221;-76
2024/01/25 08:32:10;;;;;;;23.53;5.07;;;;;;;7.10;82.04;96843.25;4996436;28;20676;-75
2024/01/25 08:34:35;;;;;;;19.70;4.00;;;;;;;7.21;81.40;96829.69;5031497;28;20187;-76
2024/01/25 08:37:01;;;;;;;29.73;4.87;;;;;;;7.28;81.55;96830.97;5032238;28;20683;-77
2024/01/25 08:39:26;;;;;;;18.53;4.20;;;;;;;7.29;81.31;96827.44;4997663;28;20720;-76
2024/01/25 08:41:51;;;;;;;30.70;5.60;;;;;;;7.33;81.27;96824.59;5032174;28;20561;-75
2024/01/25 08:44:17;;;;;;;18.73;5.27;;;;;;;7.38;81.09;96824.28;5033148;28;20675;-76
2024/01/25 08:46:43;;;;;;;24.83;5.20;;;;;;;7.46;81.08;96823.81;4998822;28;20182;-76
2024/01/25 08:49:09;;;;;;;24.93;4.47;;;;;;;7.55;80.49;96824.03;5015232;28;22053;-75
2024/01/25 08:51:35;;;;;;;18.80;4.10;;;;;;;7.59;80.56;96832.41;5013236;28;20201;-76
2024/01/25 08:54:01;;;;;;;22.73;4.80;;;;;;;7.73;80.19;96836.72;5014904;28;20194;-78
2024/01/25 08:56:26;;;;;;;28.90;5.23;;;;;;;7.72;80.43;96832.47;5031223;28;20205;-76
2024/01/25 08:58:52;;;;;;;20.37;5.10;;;;;;;7.81;79.65;96832.72;5031608;28;20178;-75
2024/01/25 09:01:17;;;;;;;23.30;4.43;;;;;;;7.76;79.48;96831.34;4997950;28;20207;-74
2024/01/25 09:03:43;;;;;;;19.20;4.50;;;;;;;7.81;79.54;96837.06;5013443;28;20244;-75
2024/01/25 09:06:08;;;;;;;23.40;4.70;;;;;;;7.79;79.26;96834.56;5015301;28;20663;-75
2024/01/25 09:08:33;;;;;;;20.77;6.60;;;;;;;7.93;79.00;96841.41;5014566;28;20240;-75
2024/01/25 09:10:59;;;;;;;26.63;6.67;;;;;;;7.94;78.96;96845.66;5030256;28;20736;-75
2024/01/25 09:13:24;;;;;;;22.27;8.77;;;;;;;8.03;78.57;96844.25;5015696;28;20236;-75
2024/01/25 09:15:50;;;;;;;20.03;6.27;;;;;;;8.15;78.37;96861.56;5015202;28;20656;-75
2024/01/25 09:18:15;;;;;;;20.33;5.63;;;;;;;8.08;78.85;96850.78;5019660;28;20183;-75
2024/01/25 09:20:40;;;;;;;14.27;4.47;;;;;;;7.95;78.59;96849.91;4997681;28;20545;-75
2024/01/25 09:23:06;;;;;;;18.83;3.67;;;;;;;8.03;78.38;96854.59;5031012;28;20217;-75
2024/01/25 09:25:32;;;;;;;20.23;4.57;;;;;;;8.14;78.14;96857.31;5014426;28;20182;-75
2024/01/25 09:27:57;;;;;;;22.90;4.80;;;;;;;8.15;77.63;96867.56;5028092;28;20784;-75
2024/01/25 09:30:23;;;;;;;24.07;5.00;;;;;;;8.06;78.51;96860.41;5031156;28;20297;-75
2024/01/25 09:32:48;;;;;;;16.43;4.23;;;;;;;8.19;77.83;96873.34;5013706;28;20671;-76
2024/01/25 09:35:14;;;;;;;15.27;3.97;;;;;;;8.33;77.25;96872.47;5031684;28;20257;-75
2024/01/25 09:37:40;;;;;;;18.57;3.60;;;;;;;8.41;77.54;96878.00;4998235;28;20210;-75
2024/01/25 09:40:06;;;;;;;17.17;4.03;;;;;;;8.48;77.42;96868.88;5031356;28;20214;-75
2024/01/25 09:42:31;;;;;;;21.10;4.23;;;;;;;8.30;77.70;96870.88;5013746;28;20633;-75
2024/01/25 09:44:57;;;;;;;17.57;4.00;;;;;;;8.63;76.45;96873.03;4997711;28;20273;-75
2024/01/25 09:47:23;;;;;;;15.33;3.90;;;;;;;8.67;76.06;96874.50;5031869;28;20236;-74
2024/01/25 09:49:48;;;;;;;21.50;4.73;;;;;;;8.65;75.86;96876.34;5029456;28;20224;-75
2024/01/25 09:52:13;;;;;;;18.47;4.83;;;;;;;8.69;75.62;96877.81;5014155;28;20186;-76
2024/01/25 09:54:39;;;;;;;24.13;6.73;;;;;;;8.71;75.34;96877.69;4996349;28;20234;-75
2024/01/25 09:57:18;;;;;;;22.40;6.77;;;;;;;8.61;76.04;96893.03;5026020;28;20710;-75
2024/01/25 09:59:44;;;;;;;17.67;4.07;;;;;;;8.86;75.32;96886.19;5013142;28;20209;-75
2024/01/25 10:02:10;;;;;;;22.43;4.57;;;;;;;8.94;74.92;96896.88;5013167;28;20198;-75
2024/01/25 10:04:36;;;;;;;13.83;3.70;;;;;;;9.00;74.04;96891.25;5013715;28;20232;-75
2024/01/25 10:07:01;;;;;;;16.43;4.07;;;;;;;9.04;73.44;96896.13;5013670;28;20311;-75
2024/01/25 10:09:27;;;;;;;14.67;3.83;;;;;;;9.18;73.65;96900.34;5013190;28;20225;-75
2024/01/25 10:11:52;;;;;;;22.37;3.57;;;;;;;9.28;73.02;96901.38;5013794;28;20185;-75
2024/01/25 10:14:17;;;;;;;14.13;3.70;;;;;;;9.29;71.84;96886.66;5027151;28;20206;-75
2024/01/25 10:16:45;;;;;;;16.60;3.30;;;;;;;9.43;70.75;96891.69;5030246;28;20190;-75
2024/01/25 10:19:11;;;;;;;14.10;3.10;;;;;;;9.50;70.92;96881.72;5029967;28;20244;-75
2024/01/25 10:21:37;;;;;;;18.90;3.73;;;;;;;9.58;69.89;96889.78;5014643;28;20293;-75
2024/01/25 10:24:03;;;;;;;14.30;3.40;;;;;;;9.50;69.73;96881.72;5025658;28;20732;-75
2024/01/25 10:26:28;;;;;;;11.47;3.23;;;;;;;9.79;68.04;96893.44;5011591;28;20264;-76
2024/01/25 10:28:54;;;;;;;13.17;3.07;;;;;;;9.83;68.24;96892.31;5017699;28;20224;-75
2024/01/25 10:31:22;;;;;;;15.40;3.17;;;;;;;9.70;67.45;96890.69;5012156;28;20292;-76
2024/01/25 10:33:48;;;;;;;15.50;3.00;;;;;;;9.70;67.44;96890.69;5031005;28;20186;-76
2024/01/25 10:36:13;;;;;;;14.73;3.60;;;;;;;9.62;67.83;96883.44;4996446;28;20212;-75
2024/01/25 10:38:39;;;;;;;17.97;2.97;;;;;;;9.76;68.05;96892.84;5012163;28;20195;-75
2024/01/25 10:41:08;;;;;;;8.93;2.83;;;;;;;9.67;66.76;96890.91;5021756;28;20256;-76
2024/01/25 10:43:33;;;;;;;12.53;3.33;;;;;;;9.76;66.62;96885.88;5029213;28;20671;-75
2024/01/25 10:45:59;;;;;;;15.93;2.93;;;;;;;9.80;66.79;96879.53;5013005;28;20190;-75
2024/01/25 10:48:31;;;;;;;7.63;2.53;;;;;;;9.63;66.90;96895.50;5030015;28;20218;-76
2024/01/25 10:50:59;;;;;;;10.50;2.90;;;;;;;9.70;66.65;96883.72;5011865;28;20249;-76
2024/01/25 10:53:25;;;;;;;11.97;3.10;;;;;;;9.92;65.86;96875.25;5011831;28;20190;-75
2024/01/25 10:55:50;;;;;;;17.37;3.33;;;;;;;10.10;66.08;96867.88;5011889;28;20648;-77
2024/01/25 10:58:16;;;;;;;14.77;2.80;;;;;;;10.08;65.40;96864.56;5009274;28;20183;-76
2024/01/25 11:00:42;;;;;;;13.90;2.90;;;;;;;10.15;65.64;96861.38;5026859;28;20237;-76
2024/01/25 11:03:07;;;;;;;15.53;2.83;;;;;;;10.28;65.02;96863.97;5011503;28;20190;-77
2024/01/25 11:05:33;;;;;;;13.03;5.50;;;;;;;9.92;65.08;96867.47;4995193;28;20265;-77
2024/01/25 11:07:58;;;;;;;18.33;6.23;;;;;;;10.26;64.00;96862.44;5030491;28;20198;-78
2024/01/25 11:10:27;;;;;;;12.37;3.20;;;;;;;10.27;63.96;96859.72;5012549;28;20217;-76
2024/01/25 11:12:59;;;;;;;12.60;6.13;;;;;;;10.38;63.47;96851.13;5029795;28;20254;-75
2024/01/25 11:15:32;;;;;;;12.60;2.73;;;;;;;10.28;64.60;96857.94;4995476;28;20240;-75
2024/01/25 11:17:58;;;;;;;11.13;2.93;;;;;;;10.27;63.99;96858.88;5012355;28;20195;-75
2024/01/25 11:20:24;;;;;;;16.23;3.93;;;;;;;10.23;63.52;96853.06;5011998;28;20848;-75
2024/01/25 11:23:02;;;;;;;15.77;3.47;;;;;;;10.30;63.67;96841.28;5022509;28;20179;-75
2024/01/25 11:25:31;;;;;;;11.93;2.33;;;;;;;10.21;62.85;96837.59;5011502;28;20189;-75
2024/01/25 11:27:57;;;;;;;10.10;3.07;;;;;;;10.20;61.93;96828.16;5023750;28;20187;-75